sensor_id;sensor_type;location;lat;lon;timestamp;P1;durP1;ratioP1;P2;durP2;ratioP2
61017;SDS011;48171;51.550;5.434;2023-05-07T00:02:25;13.93;;;9.90;;
61017;SDS011;48171;51.550;5.434;2023-05-07T00:04:50;13.63;;;10.00;;
61017;SDS011;48171;51.550;5.434;2023-05-07T00:07:17;15.00;;;10.45;;
61017;SDS011;48171;51.550;5.434;2023-05-07T00:09:42;13.20;;;10.07;;
61017;SDS011;48171;51.550;5.434;2023-05-07T00:12:08;15.07;;;10.27;;
61017;SDS011;48171;51.550;5.434;2023-05-07T00:14:33;16.30;;;10.02;;
61017;SDS011;48171;51.550;5.434;2023-05-07T00:16:58;14.35;;;10.32;;
61017;SDS011;48171;51.550;5.434;2023-05-07T00:19:24;16.80;;;10.27;;
61017;SDS011;48171;51.550;5.434;2023-05-07T00:21:49;15.88;;;10.70;;
61017;SDS011;48171;51.550;5.434;2023-05-07T00:24:15;16.48;;;10.30;;
61017;SDS011;48171;51.550;5.434;2023-05-07T00:26:40;16.52;;;10.80;;
61017;SDS011;48171;51.550;5.434;2023-05-07T00:29:05;16.88;;;11.32;;
61017;SDS011;48171;51.550;5.434;2023-05-07T00:31:31;14.15;;;10.07;;
61017;SDS011;48171;51.550;5.434;2023-05-07T00:33:56;16.08;;;10.45;;
61017;SDS011;48171;51.550;5.434;2023-05-07T00:36:21;17.95;;;10.80;;
61017;SDS011;48171;51.550;5.434;2023-05-07T00:38:46;15.43;;;10.82;;
61017;SDS011;48171;51.550;5.434;2023-05-07T00:41:12;17.38;;;12.50;;
61017;SDS011;48171;51.550;5.434;2023-05-07T00:43:37;17.20;;;11.63;;
61017;SDS011;48171;51.550;5.434;2023-05-07T00:46:02;18.08;;;11.02;;
61017;SDS011;48171;51.550;5.434;2023-05-07T00:48:28;18.90;;;11.35;;
61017;SDS011;48171;51.550;5.434;2023-05-07T00:50:53;17.30;;;11.70;;
61017;SDS011;48171;51.550;5.434;2023-05-07T00:53:19;17.30;;;11.85;;
61017;SDS011;48171;51.550;5.434;2023-05-07T00:55:45;16.77;;;10.90;;
61017;SDS011;48171;51.550;5.434;2023-05-07T00:58:11;18.88;;;11.77;;
61017;SDS011;48171;51.550;5.434;2023-05-07T01:00:36;20.45;;;12.90;;
61017;SDS011;48171;51.550;5.434;2023-05-07T01:03:01;18.20;;;11.75;;
61017;SDS011;48171;51.550;5.434;2023-05-07T01:05:27;17.80;;;12.20;;
61017;SDS011;48171;51.550;5.434;2023-05-07T01:07:53;19.92;;;11.93;;
61017;SDS011;48171;51.550;5.434;2023-05-07T01:10:20;21.58;;;13.10;;
61017;SDS011;48171;51.550;5.434;2023-05-07T01:12:46;19.13;;;12.60;;
61017;SDS011;48171;51.550;5.434;2023-05-07T01:17:48;17.63;;;12.05;;
61017;SDS011;48171;51.550;5.434;2023-05-07T01:20:14;20.50;;;13.45;;
61017;SDS011;48171;51.550;5.434;2023-05-07T01:22:40;20.35;;;13.13;;
61017;SDS011;48171;51.550;5.434;2023-05-07T01:25:10;22.50;;;13.15;;
61017;SDS011;48171;51.550;5.434;2023-05-07T01:27:36;19.55;;;13.40;;
61017;SDS011;48171;51.550;5.434;2023-05-07T01:30:02;21.88;;;13.82;;
61017;SDS011;48171;51.550;5.434;2023-05-07T01:32:29;19.92;;;13.63;;
61017;SDS011;48171;51.550;5.434;2023-05-07T01:35:00;21.67;;;13.82;;
61017;SDS011;48171;51.550;5.434;2023-05-07T01:37:28;20.95;;;13.70;;
61017;SDS011;48171;51.550;5.434;2023-05-07T01:39:57;22.85;;;14.05;;
61017;SDS011;48171;51.550;5.434;2023-05-07T01:42:22;21.25;;;13.13;;
61017;SDS011;48171;51.550;5.434;2023-05-07T01:44:48;21.48;;;13.85;;
61017;SDS011;48171;51.550;5.434;2023-05-07T01:47:13;21.50;;;13.82;;
61017;SDS011;48171;51.550;5.434;2023-05-07T01:49:39;25.40;;;15.45;;
61017;SDS011;48171;51.550;5.434;2023-05-07T01:52:05;27.77;;;15.13;;
61017;SDS011;48171;51.550;5.434;2023-05-07T01:54:30;23.45;;;15.60;;
61017;SDS011;48171;51.550;5.434;2023-05-07T01:56:56;26.52;;;15.52;;
61017;SDS011;48171;51.550;5.434;2023-05-07T01:59:21;24.23;;;15.10;;
61017;SDS011;48171;51.550;5.434;2023-05-07T02:01:47;23.10;;;14.50;;
61017;SDS011;48171;51.550;5.434;2023-05-07T02:04:12;23.05;;;15.48;;
61017;SDS011;48171;51.550;5.434;2023-05-07T02:06:38;27.27;;;16.20;;
61017;SDS011;48171;51.550;5.434;2023-05-07T02:09:03;24.02;;;15.80;;
61017;SDS011;48171;51.550;5.434;2023-05-07T02:11:28;21.60;;;15.32;;
61017;SDS011;48171;51.550;5.434;2023-05-07T02:13:53;23.13;;;15.32;;
61017;SDS011;48171;51.550;5.434;2023-05-07T02:16:19;27.77;;;16.70;;
61017;SDS011;48171;51.550;5.434;2023-05-07T02:18:44;24.30;;;15.77;;
61017;SDS011;48171;51.550;5.434;2023-05-07T02:21:10;25.80;;;16.45;;
61017;SDS011;48171;51.550;5.434;2023-05-07T02:23:35;27.90;;;16.20;;
61017;SDS011;48171;51.550;5.434;2023-05-07T02:26:01;28.05;;;16.73;;
61017;SDS011;48171;51.550;5.434;2023-05-07T02:28:26;29.55;;;17.35;;
61017;SDS011;48171;51.550;5.434;2023-05-07T02:30:52;30.10;;;17.38;;
61017;SDS011;48171;51.550;5.434;2023-05-07T02:33:17;30.50;;;17.92;;
61017;SDS011;48171;51.550;5.434;2023-05-07T02:35:43;30.42;;;18.35;;
61017;SDS011;48171;51.550;5.434;2023-05-07T02:38:08;26.83;;;18.10;;
61017;SDS011;48171;51.550;5.434;2023-05-07T02:40:35;28.08;;;17.88;;
61017;SDS011;48171;51.550;5.434;2023-05-07T02:43:03;33.17;;;18.15;;
61017;SDS011;48171;51.550;5.434;2023-05-07T02:45:29;29.73;;;18.40;;
61017;SDS011;48171;51.550;5.434;2023-05-07T02:47:54;29.52;;;18.30;;
61017;SDS011;48171;51.550;5.434;2023-05-07T02:50:20;29.38;;;17.92;;
61017;SDS011;48171;51.550;5.434;2023-05-07T02:52:45;30.60;;;18.98;;
61017;SDS011;48171;51.550;5.434;2023-05-07T02:55:10;30.70;;;19.38;;
61017;SDS011;48171;51.550;5.434;2023-05-07T02:57:36;30.70;;;17.70;;
61017;SDS011;48171;51.550;5.434;2023-05-07T03:00:09;28.13;;;17.73;;
61017;SDS011;48171;51.550;5.434;2023-05-07T03:02:36;28.50;;;18.00;;
61017;SDS011;48171;51.550;5.434;2023-05-07T03:05:01;30.45;;;19.27;;
61017;SDS011;48171;51.550;5.434;2023-05-07T03:07:27;34.25;;;19.98;;
61017;SDS011;48171;51.550;5.434;2023-05-07T03:09:52;31.85;;;19.45;;
61017;SDS011;48171;51.550;5.434;2023-05-07T03:12:18;32.55;;;19.63;;
61017;SDS011;48171;51.550;5.434;2023-05-07T03:14:44;29.88;;;19.92;;
61017;SDS011;48171;51.550;5.434;2023-05-07T03:17:09;34.33;;;20.48;;
61017;SDS011;48171;51.550;5.434;2023-05-07T03:19:34;34.42;;;19.00;;
61017;SDS011;48171;51.550;5.434;2023-05-07T03:22:00;31.10;;;19.73;;
61017;SDS011;48171;51.550;5.434;2023-05-07T03:24:25;32.00;;;19.52;;
61017;SDS011;48171;51.550;5.434;2023-05-07T03:26:50;28.83;;;19.13;;
61017;SDS011;48171;51.550;5.434;2023-05-07T03:29:16;30.00;;;18.55;;
61017;SDS011;48171;51.550;5.434;2023-05-07T03:31:41;35.17;;;20.25;;
61017;SDS011;48171;51.550;5.434;2023-05-07T03:34:06;33.03;;;20.58;;
61017;SDS011;48171;51.550;5.434;2023-05-07T03:36:31;30.40;;;19.02;;
61017;SDS011;48171;51.550;5.434;2023-05-07T03:38:57;32.83;;;19.60;;
61017;SDS011;48171;51.550;5.434;2023-05-07T03:41:22;30.88;;;19.63;;
61017;SDS011;48171;51.550;5.434;2023-05-07T03:43:47;34.25;;;21.17;;
61017;SDS011;48171;51.550;5.434;2023-05-07T03:46:13;29.20;;;18.30;;
61017;SDS011;48171;51.550;5.434;2023-05-07T03:48:38;28.17;;;18.17;;
61017;SDS011;48171;51.550;5.434;2023-05-07T03:51:03;30.83;;;18.95;;
61017;SDS011;48171;51.550;5.434;2023-05-07T03:53:28;29.05;;;18.70;;
61017;SDS011;48171;51.550;5.434;2023-05-07T03:55:54;33.60;;;19.15;;
61017;SDS011;48171;51.550;5.434;2023-05-07T03:58:19;31.70;;;20.10;;
61017;SDS011;48171;51.550;5.434;2023-05-07T04:00:45;34.03;;;21.20;;
61017;SDS011;48171;51.550;5.434;2023-05-07T04:03:10;30.33;;;19.17;;
61017;SDS011;48171;51.550;5.434;2023-05-07T04:05:35;31.77;;;20.45;;
61017;SDS011;48171;51.550;5.434;2023-05-07T04:08:01;36.85;;;21.27;;
61017;SDS011;48171;51.550;5.434;2023-05-07T04:10:27;40.13;;;23.98;;
61017;SDS011;48171;51.550;5.434;2023-05-07T04:12:53;38.13;;;22.05;;
61017;SDS011;48171;51.550;5.434;2023-05-07T04:15:18;37.83;;;23.30;;
61017;SDS011;48171;51.550;5.434;2023-05-07T04:17:44;39.30;;;23.30;;
61017;SDS011;48171;51.550;5.434;2023-05-07T04:20:10;37.22;;;22.90;;
61017;SDS011;48171;51.550;5.434;2023-05-07T04:22:37;37.47;;;22.88;;
61017;SDS011;48171;51.550;5.434;2023-05-07T04:25:03;39.53;;;22.90;;
61017;SDS011;48171;51.550;5.434;2023-05-07T04:27:28;41.70;;;24.05;;
61017;SDS011;48171;51.550;5.434;2023-05-07T04:29:54;40.15;;;24.00;;
61017;SDS011;48171;51.550;5.434;2023-05-07T04:32:20;42.92;;;24.75;;
61017;SDS011;48171;51.550;5.434;2023-05-07T04:34:46;37.75;;;23.45;;
61017;SDS011;48171;51.550;5.434;2023-05-07T04:37:11;37.90;;;23.42;;
61017;SDS011;48171;51.550;5.434;2023-05-07T04:39:37;37.33;;;22.35;;
61017;SDS011;48171;51.550;5.434;2023-05-07T04:42:02;39.47;;;24.02;;
61017;SDS011;48171;51.550;5.434;2023-05-07T04:44:28;40.80;;;25.67;;
61017;SDS011;48171;51.550;5.434;2023-05-07T04:46:55;45.60;;;26.35;;
61017;SDS011;48171;51.550;5.434;2023-05-07T04:49:21;46.20;;;27.33;;
61017;SDS011;48171;51.550;5.434;2023-05-07T04:51:46;52.10;;;29.02;;
61017;SDS011;48171;51.550;5.434;2023-05-07T04:54:11;48.10;;;27.38;;
61017;SDS011;48171;51.550;5.434;2023-05-07T04:56:37;48.25;;;28.52;;
61017;SDS011;48171;51.550;5.434;2023-05-07T04:59:02;48.40;;;28.63;;
61017;SDS011;48171;51.550;5.434;2023-05-07T05:01:27;46.25;;;27.85;;
61017;SDS011;48171;51.550;5.434;2023-05-07T05:03:52;47.35;;;29.13;;
61017;SDS011;48171;51.550;5.434;2023-05-07T05:06:18;45.55;;;27.98;;
61017;SDS011;48171;51.550;5.434;2023-05-07T05:08:43;53.63;;;28.92;;
61017;SDS011;48171;51.550;5.434;2023-05-07T05:11:08;46.80;;;27.83;;
61017;SDS011;48171;51.550;5.434;2023-05-07T05:13:34;46.83;;;27.73;;
61017;SDS011;48171;51.550;5.434;2023-05-07T05:16:00;47.97;;;28.42;;
61017;SDS011;48171;51.550;5.434;2023-05-07T05:18:25;47.97;;;29.50;;
61017;SDS011;48171;51.550;5.434;2023-05-07T05:20:51;45.33;;;28.40;;
61017;SDS011;48171;51.550;5.434;2023-05-07T05:23:16;48.72;;;30.23;;
61017;SDS011;48171;51.550;5.434;2023-05-07T05:25:41;50.03;;;29.95;;
61017;SDS011;48171;51.550;5.434;2023-05-07T05:28:07;53.85;;;31.95;;
61017;SDS011;48171;51.550;5.434;2023-05-07T05:30:32;54.13;;;32.78;;
61017;SDS011;48171;51.550;5.434;2023-05-07T05:32:57;50.25;;;31.67;;
61017;SDS011;48171;51.550;5.434;2023-05-07T05:35:23;57.22;;;33.45;;
61017;SDS011;48171;51.550;5.434;2023-05-07T05:37:48;53.97;;;33.95;;
61017;SDS011;48171;51.550;5.434;2023-05-07T05:40:13;51.72;;;31.35;;
61017;SDS011;48171;51.550;5.434;2023-05-07T05:42:39;52.42;;;32.03;;
61017;SDS011;48171;51.550;5.434;2023-05-07T05:45:04;54.38;;;32.15;;
61017;SDS011;48171;51.550;5.434;2023-05-07T05:47:30;53.70;;;32.33;;
61017;SDS011;48171;51.550;5.434;2023-05-07T05:49:55;55.72;;;32.45;;
61017;SDS011;48171;51.550;5.434;2023-05-07T05:52:21;55.80;;;31.58;;
61017;SDS011;48171;51.550;5.434;2023-05-07T05:54:48;53.08;;;31.58;;
61017;SDS011;48171;51.550;5.434;2023-05-07T05:57:14;51.90;;;31.90;;
61017;SDS011;48171;51.550;5.434;2023-05-07T05:59:39;52.65;;;31.77;;
61017;SDS011;48171;51.550;5.434;2023-05-07T06:02:04;53.15;;;32.00;;
61017;SDS011;48171;51.550;5.434;2023-05-07T06:04:30;50.22;;;31.42;;
61017;SDS011;48171;51.550;5.434;2023-05-07T06:06:55;53.67;;;32.75;;
61017;SDS011;48171;51.550;5.434;2023-05-07T06:09:21;54.83;;;32.40;;
61017;SDS011;48171;51.550;5.434;2023-05-07T06:11:46;53.95;;;32.35;;
61017;SDS011;48171;51.550;5.434;2023-05-07T06:14:12;51.25;;;31.08;;
61017;SDS011;48171;51.550;5.434;2023-05-07T06:16:37;55.95;;;32.53;;
61017;SDS011;48171;51.550;5.434;2023-05-07T06:19:03;54.88;;;32.22;;
61017;SDS011;48171;51.550;5.434;2023-05-07T06:21:28;55.45;;;34.65;;
61017;SDS011;48171;51.550;5.434;2023-05-07T06:23:53;54.90;;;33.58;;
61017;SDS011;48171;51.550;5.434;2023-05-07T06:26:19;54.80;;;32.78;;
61017;SDS011;48171;51.550;5.434;2023-05-07T06:28:45;54.40;;;33.35;;
61017;SDS011;48171;51.550;5.434;2023-05-07T06:31:14;55.45;;;34.92;;
61017;SDS011;48171;51.550;5.434;2023-05-07T06:33:44;57.15;;;32.90;;
61017;SDS011;48171;51.550;5.434;2023-05-07T06:36:10;58.08;;;34.30;;
61017;SDS011;48171;51.550;5.434;2023-05-07T06:38:35;52.80;;;32.60;;
61017;SDS011;48171;51.550;5.434;2023-05-07T06:41:00;49.53;;;30.67;;
61017;SDS011;48171;51.550;5.434;2023-05-07T06:43:26;50.85;;;31.48;;
61017;SDS011;48171;51.550;5.434;2023-05-07T06:45:51;56.20;;;32.35;;
61017;SDS011;48171;51.550;5.434;2023-05-07T06:48:16;54.60;;;32.33;;
61017;SDS011;48171;51.550;5.434;2023-05-07T06:50:41;51.53;;;31.27;;
61017;SDS011;48171;51.550;5.434;2023-05-07T06:53:07;50.83;;;31.40;;
61017;SDS011;48171;51.550;5.434;2023-05-07T06:55:32;54.58;;;33.65;;
61017;SDS011;48171;51.550;5.434;2023-05-07T06:57:57;52.30;;;32.97;;
61017;SDS011;48171;51.550;5.434;2023-05-07T07:00:25;54.00;;;34.15;;
61017;SDS011;48171;51.550;5.434;2023-05-07T07:02:54;54.25;;;32.70;;
61017;SDS011;48171;51.550;5.434;2023-05-07T07:05:20;52.42;;;31.70;;
61017;SDS011;48171;51.550;5.434;2023-05-07T07:07:45;51.90;;;30.77;;
61017;SDS011;48171;51.550;5.434;2023-05-07T07:10:17;54.03;;;32.38;;
61017;SDS011;48171;51.550;5.434;2023-05-07T07:12:45;56.50;;;34.45;;
61017;SDS011;48171;51.550;5.434;2023-05-07T07:15:11;49.97;;;31.30;;
61017;SDS011;48171;51.550;5.434;2023-05-07T07:17:36;52.13;;;32.90;;
61017;SDS011;48171;51.550;5.434;2023-05-07T07:20:02;53.80;;;33.75;;
61017;SDS011;48171;51.550;5.434;2023-05-07T07:22:27;54.40;;;33.33;;
61017;SDS011;48171;51.550;5.434;2023-05-07T07:24:53;52.60;;;32.90;;
61017;SDS011;48171;51.550;5.434;2023-05-07T07:27:18;54.20;;;31.70;;
61017;SDS011;48171;51.550;5.434;2023-05-07T07:29:44;60.25;;;33.92;;
61017;SDS011;48171;51.550;5.434;2023-05-07T07:32:09;58.95;;;35.05;;
61017;SDS011;48171;51.550;5.434;2023-05-07T07:34:34;54.75;;;33.47;;
61017;SDS011;48171;51.550;5.434;2023-05-07T07:36:59;56.08;;;34.38;;
61017;SDS011;48171;51.550;5.434;2023-05-07T07:39:30;55.08;;;33.53;;
61017;SDS011;48171;51.550;5.434;2023-05-07T07:41:55;64.65;;;35.90;;
61017;SDS011;48171;51.550;5.434;2023-05-07T07:44:21;53.55;;;32.45;;
61017;SDS011;48171;51.550;5.434;2023-05-07T07:46:46;57.42;;;34.45;;
61017;SDS011;48171;51.550;5.434;2023-05-07T07:49:11;57.67;;;34.55;;
61017;SDS011;48171;51.550;5.434;2023-05-07T07:51:36;53.42;;;33.30;;
61017;SDS011;48171;51.550;5.434;2023-05-07T07:54:02;54.72;;;33.55;;
61017;SDS011;48171;51.550;5.434;2023-05-07T07:56:28;55.35;;;34.00;;
61017;SDS011;48171;51.550;5.434;2023-05-07T07:58:53;53.28;;;32.35;;
61017;SDS011;48171;51.550;5.434;2023-05-07T08:01:18;50.17;;;32.17;;
61017;SDS011;48171;51.550;5.434;2023-05-07T08:03:43;50.25;;;32.10;;
61017;SDS011;48171;51.550;5.434;2023-05-07T08:06:09;51.20;;;31.85;;
61017;SDS011;48171;51.550;5.434;2023-05-07T08:08:34;53.10;;;33.28;;
61017;SDS011;48171;51.550;5.434;2023-05-07T08:11:00;56.08;;;34.47;;
61017;SDS011;48171;51.550;5.434;2023-05-07T08:13:25;55.97;;;33.00;;
61017;SDS011;48171;51.550;5.434;2023-05-07T08:15:51;57.05;;;37.17;;
61017;SDS011;48171;51.550;5.434;2023-05-07T08:18:16;57.67;;;37.22;;
61017;SDS011;48171;51.550;5.434;2023-05-07T08:20:41;58.00;;;36.55;;
61017;SDS011;48171;51.550;5.434;2023-05-07T08:23:07;54.58;;;35.92;;
61017;SDS011;48171;51.550;5.434;2023-05-07T08:25:33;60.72;;;37.17;;
61017;SDS011;48171;51.550;5.434;2023-05-07T08:27:59;54.08;;;34.08;;
61017;SDS011;48171;51.550;5.434;2023-05-07T08:30:24;53.20;;;33.97;;
61017;SDS011;48171;51.550;5.434;2023-05-07T08:32:50;53.55;;;33.67;;
61017;SDS011;48171;51.550;5.434;2023-05-07T08:35:15;56.88;;;35.22;;
61017;SDS011;48171;51.550;5.434;2023-05-07T08:37:40;51.30;;;32.75;;
61017;SDS011;48171;51.550;5.434;2023-05-07T08:40:06;56.17;;;33.25;;
61017;SDS011;48171;51.550;5.434;2023-05-07T08:42:32;52.40;;;32.25;;
61017;SDS011;48171;51.550;5.434;2023-05-07T08:45:01;46.90;;;30.02;;
61017;SDS011;48171;51.550;5.434;2023-05-07T08:47:34;53.00;;;32.10;;
61017;SDS011;48171;51.550;5.434;2023-05-07T08:50:03;50.10;;;32.25;;
61017;SDS011;48171;51.550;5.434;2023-05-07T08:52:30;49.28;;;30.42;;
61017;SDS011;48171;51.550;5.434;2023-05-07T08:54:56;54.17;;;33.03;;
61017;SDS011;48171;51.550;5.434;2023-05-07T08:57:21;47.15;;;30.52;;
61017;SDS011;48171;51.550;5.434;2023-05-07T08:59:48;49.00;;;32.03;;
61017;SDS011;48171;51.550;5.434;2023-05-07T09:02:13;43.35;;;28.95;;
61017;SDS011;48171;51.550;5.434;2023-05-07T09:04:39;45.25;;;29.83;;
61017;SDS011;48171;51.550;5.434;2023-05-07T09:07:04;46.97;;;28.08;;
61017;SDS011;48171;51.550;5.434;2023-05-07T09:09:32;48.97;;;31.33;;
61017;SDS011;48171;51.550;5.434;2023-05-07T09:11:58;49.27;;;31.07;;
61017;SDS011;48171;51.550;5.434;2023-05-07T09:14:24;49.47;;;32.13;;
61017;SDS011;48171;51.550;5.434;2023-05-07T09:16:51;47.72;;;30.75;;
61017;SDS011;48171;51.550;5.434;2023-05-07T09:19:21;48.03;;;30.98;;
61017;SDS011;48171;51.550;5.434;2023-05-07T09:21:48;46.55;;;29.13;;
61017;SDS011;48171;51.550;5.434;2023-05-07T09:24:15;46.38;;;30.08;;
61017;SDS011;48171;51.550;5.434;2023-05-07T09:26:40;47.45;;;30.95;;
61017;SDS011;48171;51.550;5.434;2023-05-07T09:29:06;47.42;;;30.35;;
61017;SDS011;48171;51.550;5.434;2023-05-07T09:31:35;47.35;;;29.35;;
61017;SDS011;48171;51.550;5.434;2023-05-07T09:36:29;42.90;;;28.35;;
61017;SDS011;48171;51.550;5.434;2023-05-07T09:38:54;45.47;;;29.20;;
61017;SDS011;48171;51.550;5.434;2023-05-07T09:41:21;47.05;;;30.13;;
61017;SDS011;48171;51.550;5.434;2023-05-07T09:43:46;48.55;;;29.13;;
61017;SDS011;48171;51.550;5.434;2023-05-07T09:46:18;44.45;;;28.73;;
61017;SDS011;48171;51.550;5.434;2023-05-07T09:48:49;45.10;;;29.70;;
61017;SDS011;48171;51.550;5.434;2023-05-07T09:53:48;45.97;;;29.77;;
61017;SDS011;48171;51.550;5.434;2023-05-07T09:56:15;44.38;;;29.17;;
61017;SDS011;48171;51.550;5.434;2023-05-07T09:58:42;49.65;;;29.90;;
61017;SDS011;48171;51.550;5.434;2023-05-07T10:01:10;48.72;;;29.50;;
61017;SDS011;48171;51.550;5.434;2023-05-07T10:03:37;45.67;;;29.10;;
61017;SDS011;48171;51.550;5.434;2023-05-07T10:06:05;44.58;;;29.75;;
61017;SDS011;48171;51.550;5.434;2023-05-07T10:08:33;42.17;;;26.20;;
61017;SDS011;48171;51.550;5.434;2023-05-07T10:11:00;42.40;;;27.23;;
61017;SDS011;48171;51.550;5.434;2023-05-07T10:13:26;37.67;;;24.35;;
61017;SDS011;48171;51.550;5.434;2023-05-07T10:15:52;39.65;;;27.05;;
61017;SDS011;48171;51.550;5.434;2023-05-07T10:18:18;42.83;;;26.67;;
61017;SDS011;48171;51.550;5.434;2023-05-07T10:23:16;41.58;;;26.13;;
61017;SDS011;48171;51.550;5.434;2023-05-07T10:25:48;42.13;;;27.05;;
61017;SDS011;48171;51.550;5.434;2023-05-07T10:28:13;39.20;;;24.85;;
61017;SDS011;48171;51.550;5.434;2023-05-07T10:33:26;42.95;;;26.23;;
61017;SDS011;48171;51.550;5.434;2023-05-07T10:35:55;40.28;;;25.85;;
61017;SDS011;48171;51.550;5.434;2023-05-07T10:38:24;39.35;;;26.70;;
61017;SDS011;48171;51.550;5.434;2023-05-07T10:40:50;38.33;;;25.55;;
61017;SDS011;48171;51.550;5.434;2023-05-07T10:43:16;40.83;;;27.83;;
61017;SDS011;48171;51.550;5.434;2023-05-07T10:45:41;40.25;;;27.58;;
61017;SDS011;48171;51.550;5.434;2023-05-07T10:48:07;34.10;;;23.77;;
61017;SDS011;48171;51.550;5.434;2023-05-07T10:50:34;35.65;;;23.60;;
61017;SDS011;48171;51.550;5.434;2023-05-07T10:53:20;40.25;;;25.08;;
61017;SDS011;48171;51.550;5.434;2023-05-07T10:55:48;36.80;;;23.95;;
61017;SDS011;48171;51.550;5.434;2023-05-07T11:00:46;34.42;;;22.60;;
61017;SDS011;48171;51.550;5.434;2023-05-07T11:03:12;31.90;;;20.63;;
61017;SDS011;48171;51.550;5.434;2023-05-07T11:05:39;32.45;;;21.08;;
61017;SDS011;48171;51.550;5.434;2023-05-07T11:08:05;32.40;;;20.70;;
61017;SDS011;48171;51.550;5.434;2023-05-07T11:24:01;29.08;;;18.58;;
61017;SDS011;48171;51.550;5.434;2023-05-07T11:26:29;28.80;;;17.90;;
61017;SDS011;48171;51.550;5.434;2023-05-07T11:28:55;28.65;;;18.98;;
61017;SDS011;48171;51.550;5.434;2023-05-07T11:31:22;30.60;;;19.98;;
61017;SDS011;48171;51.550;5.434;2023-05-07T11:33:49;28.60;;;18.75;;
61017;SDS011;48171;51.550;5.434;2023-05-07T11:36:15;21.17;;;14.05;;
61017;SDS011;48171;51.550;5.434;2023-05-07T11:38:40;20.55;;;12.30;;
61017;SDS011;48171;51.550;5.434;2023-05-07T11:41:07;20.48;;;12.95;;
61017;SDS011;48171;51.550;5.434;2023-05-07T11:43:32;25.08;;;15.60;;
61017;SDS011;48171;51.550;5.434;2023-05-07T11:46:05;28.02;;;16.35;;
61017;SDS011;48171;51.550;5.434;2023-05-07T11:48:32;24.23;;;17.00;;
61017;SDS011;48171;51.550;5.434;2023-05-07T11:53:26;22.93;;;16.20;;
61017;SDS011;48171;51.550;5.434;2023-05-07T11:55:53;26.98;;;15.90;;
61017;SDS011;48171;51.550;5.434;2023-05-07T11:58:20;24.60;;;14.90;;
61017;SDS011;48171;51.550;5.434;2023-05-07T12:00:50;28.80;;;15.75;;
61017;SDS011;48171;51.550;5.434;2023-05-07T12:03:16;22.67;;;14.73;;
61017;SDS011;48171;51.550;5.434;2023-05-07T12:05:42;24.63;;;16.95;;
61017;SDS011;48171;51.550;5.434;2023-05-07T12:08:08;27.55;;;16.50;;
61017;SDS011;48171;51.550;5.434;2023-05-07T12:10:40;20.25;;;13.98;;
61017;SDS011;48171;51.550;5.434;2023-05-07T12:13:13;23.40;;;13.13;;
61017;SDS011;48171;51.550;5.434;2023-05-07T12:15:53;20.63;;;13.90;;
61017;SDS011;48171;51.550;5.434;2023-05-07T12:18:20;19.80;;;13.98;;
61017;SDS011;48171;51.550;5.434;2023-05-07T12:20:46;25.45;;;15.27;;
61017;SDS011;48171;51.550;5.434;2023-05-07T12:23:12;21.30;;;13.07;;
61017;SDS011;48171;51.550;5.434;2023-05-07T12:25:38;21.80;;;13.48;;
61017;SDS011;48171;51.550;5.434;2023-05-07T12:28:05;17.45;;;12.65;;
61017;SDS011;48171;51.550;5.434;2023-05-07T12:30:39;23.83;;;14.15;;
61017;SDS011;48171;51.550;5.434;2023-05-07T12:33:05;20.15;;;13.68;;
61017;SDS011;48171;51.550;5.434;2023-05-07T12:35:32;23.55;;;14.95;;
61017;SDS011;48171;51.550;5.434;2023-05-07T12:40:35;23.38;;;13.35;;
61017;SDS011;48171;51.550;5.434;2023-05-07T12:43:02;23.08;;;13.93;;
61017;SDS011;48171;51.550;5.434;2023-05-07T12:45:27;24.52;;;14.85;;
61017;SDS011;48171;51.550;5.434;2023-05-07T12:47:52;20.25;;;14.27;;
61017;SDS011;48171;51.550;5.434;2023-05-07T12:50:18;22.85;;;14.55;;
61017;SDS011;48171;51.550;5.434;2023-05-07T12:52:44;5.78;;;4.05;;
61017;SDS011;48171;51.550;5.434;2023-05-07T12:55:12;8.25;;;3.72;;
61017;SDS011;48171;51.550;5.434;2023-05-07T12:57:45;6.60;;;3.73;;
61017;SDS011;48171;51.550;5.434;2023-05-07T13:00:13;8.75;;;5.40;;
61017;SDS011;48171;51.550;5.434;2023-05-07T13:02:40;9.38;;;5.80;;
61017;SDS011;48171;51.550;5.434;2023-05-07T13:05:06;14.68;;;7.38;;
61017;SDS011;48171;51.550;5.434;2023-05-07T13:07:32;15.45;;;7.53;;
61017;SDS011;48171;51.550;5.434;2023-05-07T13:09:58;20.10;;;8.90;;
61017;SDS011;48171;51.550;5.434;2023-05-07T13:12:23;24.08;;;9.98;;
61017;SDS011;48171;51.550;5.434;2023-05-07T13:14:48;16.02;;;7.80;;
61017;SDS011;48171;51.550;5.434;2023-05-07T13:17:14;159.80;;;17.45;;
61017;SDS011;48171;51.550;5.434;2023-05-07T13:19:39;61.75;;;11.73;;
61017;SDS011;48171;51.550;5.434;2023-05-07T13:22:04;56.72;;;9.63;;
61017;SDS011;48171;51.550;5.434;2023-05-07T13:24:30;60.50;;;10.05;;
61017;SDS011;48171;51.550;5.434;2023-05-07T13:26:55;33.97;;;8.50;;
61017;SDS011;48171;51.550;5.434;2023-05-07T13:29:20;86.05;;;10.55;;
61017;SDS011;48171;51.550;5.434;2023-05-07T13:31:53;36.85;;;8.52;;
61017;SDS011;48171;51.550;5.434;2023-05-07T13:34:19;61.95;;;9.43;;
61017;SDS011;48171;51.550;5.434;2023-05-07T13:36:44;25.50;;;8.48;;
61017;SDS011;48171;51.550;5.434;2023-05-07T13:39:10;23.98;;;7.32;;
61017;SDS011;48171;51.550;5.434;2023-05-07T13:41:35;22.63;;;7.68;;
61017;SDS011;48171;51.550;5.434;2023-05-07T13:44:00;24.80;;;8.20;;
61017;SDS011;48171;51.550;5.434;2023-05-07T13:46:25;41.53;;;8.77;;
61017;SDS011;48171;51.550;5.434;2023-05-07T13:48:51;19.05;;;7.78;;
61017;SDS011;48171;51.550;5.434;2023-05-07T13:51:16;23.70;;;8.88;;
61017;SDS011;48171;51.550;5.434;2023-05-07T13:53:42;17.48;;;8.63;;
61017;SDS011;48171;51.550;5.434;2023-05-07T13:56:07;23.52;;;9.88;;
61017;SDS011;48171;51.550;5.434;2023-05-07T13:58:32;21.13;;;10.13;;
61017;SDS011;48171;51.550;5.434;2023-05-07T14:00:58;26.50;;;10.70;;
61017;SDS011;48171;51.550;5.434;2023-05-07T14:03:23;22.42;;;10.60;;
61017;SDS011;48171;51.550;5.434;2023-05-07T14:05:48;23.00;;;10.95;;
61017;SDS011;48171;51.550;5.434;2023-05-07T14:08:13;24.30;;;11.40;;
61017;SDS011;48171;51.550;5.434;2023-05-07T14:10:39;25.52;;;11.10;;
61017;SDS011;48171;51.550;5.434;2023-05-07T14:13:05;23.40;;;11.73;;
61017;SDS011;48171;51.550;5.434;2023-05-07T14:15:31;27.45;;;12.50;;
61017;SDS011;48171;51.550;5.434;2023-05-07T14:17:57;22.33;;;11.85;;
61017;SDS011;48171;51.550;5.434;2023-05-07T14:20:24;28.90;;;13.20;;
61017;SDS011;48171;51.550;5.434;2023-05-07T14:22:50;33.78;;;14.77;;
61017;SDS011;48171;51.550;5.434;2023-05-07T14:25:15;32.22;;;14.07;;
61017;SDS011;48171;51.550;5.434;2023-05-07T14:27:40;32.50;;;14.48;;
61017;SDS011;48171;51.550;5.434;2023-05-07T14:30:06;29.10;;;14.07;;
61017;SDS011;48171;51.550;5.434;2023-05-07T14:32:32;32.58;;;15.55;;
61017;SDS011;48171;51.550;5.434;2023-05-07T14:34:58;36.00;;;16.25;;
61017;SDS011;48171;51.550;5.434;2023-05-07T14:37:24;35.67;;;16.75;;
61017;SDS011;48171;51.550;5.434;2023-05-07T14:39:49;33.60;;;16.38;;
61017;SDS011;48171;51.550;5.434;2023-05-07T14:42:14;36.70;;;16.98;;
61017;SDS011;48171;51.550;5.434;2023-05-07T14:44:40;41.13;;;17.25;;
61017;SDS011;48171;51.550;5.434;2023-05-07T14:47:06;35.58;;;17.40;;
61017;SDS011;48171;51.550;5.434;2023-05-07T14:49:32;35.88;;;16.70;;
61017;SDS011;48171;51.550;5.434;2023-05-07T14:51:58;30.98;;;15.40;;